sensor_id;sensor_type;location;lat;lon;timestamp;P1;durP1;ratioP1;P2;durP2;ratioP2
57441;SDS011;43284;47.042;15.498;2023-03-01T00:01:52;23.85;;;9.88;;
57441;SDS011;43284;47.042;15.498;2023-03-01T00:04:18;28.02;;;10.30;;
57441;SDS011;43284;47.042;15.498;2023-03-01T00:06:43;25.55;;;8.57;;
57441;SDS011;43284;47.042;15.498;2023-03-01T00:09:15;24.20;;;8.88;;
57441;SDS011;43284;47.042;15.498;2023-03-01T00:11:42;23.15;;;9.50;;
57441;SDS011;43284;47.042;15.498;2023-03-01T00:14:08;27.40;;;9.82;;
57441;SDS011;43284;47.042;15.498;2023-03-01T00:16:34;31.88;;;10.05;;
57441;SDS011;43284;47.042;15.498;2023-03-01T00:19:03;26.67;;;11.02;;
57441;SDS011;43284;47.042;15.498;2023-03-01T00:21:29;28.08;;;10.32;;
57441;SDS011;43284;47.042;15.498;2023-03-01T00:23:55;30.08;;;10.30;;
57441;SDS011;43284;47.042;15.498;2023-03-01T00:26:22;27.20;;;10.20;;
57441;SDS011;43284;47.042;15.498;2023-03-01T00:28:48;26.60;;;10.68;;
57441;SDS011;43284;47.042;15.498;2023-03-01T00:31:15;21.10;;;8.85;;
57441;SDS011;43284;47.042;15.498;2023-03-01T00:33:46;27.67;;;10.02;;
57441;SDS011;43284;47.042;15.498;2023-03-01T00:36:12;26.05;;;9.60;;
57441;SDS011;43284;47.042;15.498;2023-03-01T00:38:40;23.40;;;9.50;;
57441;SDS011;43284;47.042;15.498;2023-03-01T00:41:12;27.58;;;10.88;;
57441;SDS011;43284;47.042;15.498;2023-03-01T00:43:40;29.13;;;10.63;;
57441;SDS011;43284;47.042;15.498;2023-03-01T00:46:07;24.90;;;9.73;;
57441;SDS011;43284;47.042;15.498;2023-03-01T00:48:35;25.98;;;10.20;;
57441;SDS011;43284;47.042;15.498;2023-03-01T00:51:09;22.42;;;9.10;;
57441;SDS011;43284;47.042;15.498;2023-03-01T00:53:35;25.27;;;10.25;;
57441;SDS011;43284;47.042;15.498;2023-03-01T00:56:02;27.80;;;10.45;;
57441;SDS011;43284;47.042;15.498;2023-03-01T00:58:28;22.98;;;9.85;;
57441;SDS011;43284;47.042;15.498;2023-03-01T01:00:54;24.50;;;10.43;;
57441;SDS011;43284;47.042;15.498;2023-03-01T01:03:20;29.05;;;9.73;;
57441;SDS011;43284;47.042;15.498;2023-03-01T01:05:46;22.63;;;9.75;;
57441;SDS011;43284;47.042;15.498;2023-03-01T01:08:11;32.10;;;10.75;;
57441;SDS011;43284;47.042;15.498;2023-03-01T01:10:37;22.67;;;9.55;;
57441;SDS011;43284;47.042;15.498;2023-03-01T01:13:03;27.00;;;9.35;;
57441;SDS011;43284;47.042;15.498;2023-03-01T01:15:32;26.17;;;10.05;;
57441;SDS011;43284;47.042;15.498;2023-03-01T01:17:59;27.63;;;9.88;;
57441;SDS011;43284;47.042;15.498;2023-03-01T01:20:25;24.27;;;10.32;;
57441;SDS011;43284;47.042;15.498;2023-03-01T01:22:51;29.83;;;11.20;;
57441;SDS011;43284;47.042;15.498;2023-03-01T01:25:17;27.63;;;11.15;;
57441;SDS011;43284;47.042;15.498;2023-03-01T01:27:43;27.80;;;10.27;;
57441;SDS011;43284;47.042;15.498;2023-03-01T01:30:09;23.67;;;9.57;;
57441;SDS011;43284;47.042;15.498;2023-03-01T01:32:35;29.73;;;10.63;;
57441;SDS011;43284;47.042;15.498;2023-03-01T01:35:01;23.20;;;9.57;;
57441;SDS011;43284;47.042;15.498;2023-03-01T01:37:26;22.25;;;8.82;;
57441;SDS011;43284;47.042;15.498;2023-03-01T01:39:59;23.73;;;9.80;;
57441;SDS011;43284;47.042;15.498;2023-03-01T01:42:26;29.48;;;10.18;;
57441;SDS011;43284;47.042;15.498;2023-03-01T01:47:56;27.63;;;9.63;;
57441;SDS011;43284;47.042;15.498;2023-03-01T01:50:25;30.38;;;10.15;;
57441;SDS011;43284;47.042;15.498;2023-03-01T01:52:52;27.17;;;9.90;;
57441;SDS011;43284;47.042;15.498;2023-03-01T01:55:21;22.13;;;9.07;;
57441;SDS011;43284;47.042;15.498;2023-03-01T01:57:53;25.13;;;9.57;;
57441;SDS011;43284;47.042;15.498;2023-03-01T02:00:24;23.33;;;9.88;;
57441;SDS011;43284;47.042;15.498;2023-03-01T02:02:55;22.83;;;9.07;;
57441;SDS011;43284;47.042;15.498;2023-03-01T02:05:31;26.90;;;9.50;;
57441;SDS011;43284;47.042;15.498;2023-03-01T02:08:13;25.13;;;9.07;;
57441;SDS011;43284;47.042;15.498;2023-03-01T02:10:41;25.30;;;9.43;;
57441;SDS011;43284;47.042;15.498;2023-03-01T02:13:11;24.33;;;8.40;;
57441;SDS011;43284;47.042;15.498;2023-03-01T02:15:38;26.77;;;8.98;;
57441;SDS011;43284;47.042;15.498;2023-03-01T02:18:05;24.63;;;9.05;;
57441;SDS011;43284;47.042;15.498;2023-03-01T02:23:10;22.38;;;8.80;;
57441;SDS011;43284;47.042;15.498;2023-03-01T02:30:55;23.92;;;9.57;;
57441;SDS011;43284;47.042;15.498;2023-03-01T02:33:39;26.95;;;10.30;;
57441;SDS011;43284;47.042;15.498;2023-03-01T02:36:09;25.33;;;9.63;;
57441;SDS011;43284;47.042;15.498;2023-03-01T02:38:40;25.25;;;8.63;;
57441;SDS011;43284;47.042;15.498;2023-03-01T02:41:06;26.38;;;9.23;;
57441;SDS011;43284;47.042;15.498;2023-03-01T02:43:36;23.67;;;8.82;;
57441;SDS011;43284;47.042;15.498;2023-03-01T02:46:06;20.90;;;8.18;;
57441;SDS011;43284;47.042;15.498;2023-03-01T02:48:45;25.00;;;9.18;;
57441;SDS011;43284;47.042;15.498;2023-03-01T02:51:27;21.73;;;7.97;;
57441;SDS011;43284;47.042;15.498;2023-03-01T02:54:06;19.83;;;8.60;;
57441;SDS011;43284;47.042;15.498;2023-03-01T02:56:38;23.23;;;8.35;;
57441;SDS011;43284;47.042;15.498;2023-03-01T02:59:04;21.00;;;7.75;;
57441;SDS011;43284;47.042;15.498;2023-03-01T03:01:30;22.33;;;8.45;;
57441;SDS011;43284;47.042;15.498;2023-03-01T03:04:05;22.05;;;8.20;;
57441;SDS011;43284;47.042;15.498;2023-03-01T03:06:34;21.30;;;7.47;;
57441;SDS011;43284;47.042;15.498;2023-03-01T03:09:01;16.92;;;7.43;;
57441;SDS011;43284;47.042;15.498;2023-03-01T03:11:28;23.63;;;7.75;;
57441;SDS011;43284;47.042;15.498;2023-03-01T03:13:54;25.23;;;8.77;;
57441;SDS011;43284;47.042;15.498;2023-03-01T03:16:20;21.60;;;7.95;;
57441;SDS011;43284;47.042;15.498;2023-03-01T03:18:47;21.42;;;8.13;;
57441;SDS011;43284;47.042;15.498;2023-03-01T03:21:13;22.58;;;7.95;;
57441;SDS011;43284;47.042;15.498;2023-03-01T03:23:39;24.17;;;8.38;;
57441;SDS011;43284;47.042;15.498;2023-03-01T03:26:05;20.80;;;8.55;;
57441;SDS011;43284;47.042;15.498;2023-03-01T03:28:32;23.50;;;8.77;;
57441;SDS011;43284;47.042;15.498;2023-03-01T03:30:58;21.75;;;8.43;;
57441;SDS011;43284;47.042;15.498;2023-03-01T03:33:31;21.00;;;7.45;;
57441;SDS011;43284;47.042;15.498;2023-03-01T03:35:58;18.63;;;6.85;;
57441;SDS011;43284;47.042;15.498;2023-03-01T03:38:23;20.58;;;8.13;;
57441;SDS011;43284;47.042;15.498;2023-03-01T03:40:59;21.00;;;8.27;;
57441;SDS011;43284;47.042;15.498;2023-03-01T03:43:28;19.92;;;7.78;;
57441;SDS011;43284;47.042;15.498;2023-03-01T03:45:55;22.13;;;8.23;;
57441;SDS011;43284;47.042;15.498;2023-03-01T03:48:22;18.08;;;7.57;;
57441;SDS011;43284;47.042;15.498;2023-03-01T03:50:50;20.48;;;7.13;;
57441;SDS011;43284;47.042;15.498;2023-03-01T03:53:17;21.15;;;9.25;;
57441;SDS011;43284;47.042;15.498;2023-03-01T03:55:43;19.38;;;7.30;;
57441;SDS011;43284;47.042;15.498;2023-03-01T03:58:09;16.27;;;7.82;;
57441;SDS011;43284;47.042;15.498;2023-03-01T04:00:43;22.65;;;7.93;;
57441;SDS011;43284;47.042;15.498;2023-03-01T04:03:10;21.80;;;7.72;;
57441;SDS011;43284;47.042;15.498;2023-03-01T04:05:39;28.38;;;11.05;;
57441;SDS011;43284;47.042;15.498;2023-03-01T04:08:05;22.10;;;9.48;;
57441;SDS011;43284;47.042;15.498;2023-03-01T04:10:36;24.10;;;8.35;;
57441;SDS011;43284;47.042;15.498;2023-03-01T04:13:04;25.88;;;9.40;;
57441;SDS011;43284;47.042;15.498;2023-03-01T04:15:32;22.83;;;8.38;;
57441;SDS011;43284;47.042;15.498;2023-03-01T04:17:58;20.88;;;8.07;;
57441;SDS011;43284;47.042;15.498;2023-03-01T04:20:29;25.50;;;8.68;;
57441;SDS011;43284;47.042;15.498;2023-03-01T04:23:17;25.45;;;9.02;;
57441;SDS011;43284;47.042;15.498;2023-03-01T04:25:48;24.98;;;8.35;;
57441;SDS011;43284;47.042;15.498;2023-03-01T04:28:21;22.23;;;7.75;;
57441;SDS011;43284;47.042;15.498;2023-03-01T04:30:49;18.42;;;7.68;;
57441;SDS011;43284;47.042;15.498;2023-03-01T04:33:16;20.35;;;8.02;;
57441;SDS011;43284;47.042;15.498;2023-03-01T04:35:41;19.00;;;8.05;;
57441;SDS011;43284;47.042;15.498;2023-03-01T04:38:07;25.85;;;9.35;;
57441;SDS011;43284;47.042;15.498;2023-03-01T04:40:34;23.95;;;9.07;;
57441;SDS011;43284;47.042;15.498;2023-03-01T04:43:00;20.40;;;8.63;;
57441;SDS011;43284;47.042;15.498;2023-03-01T04:45:27;24.20;;;8.63;;
57441;SDS011;43284;47.042;15.498;2023-03-01T04:47:53;31.33;;;10.70;;
57441;SDS011;43284;47.042;15.498;2023-03-01T04:50:19;28.30;;;9.70;;
57441;SDS011;43284;47.042;15.498;2023-03-01T04:52:48;26.92;;;9.43;;
57441;SDS011;43284;47.042;15.498;2023-03-01T04:55:14;19.98;;;8.63;;
57441;SDS011;43284;47.042;15.498;2023-03-01T04:57:41;25.02;;;8.90;;
57441;SDS011;43284;47.042;15.498;2023-03-01T05:00:08;19.83;;;7.63;;
57441;SDS011;43284;47.042;15.498;2023-03-01T05:02:46;20.10;;;8.23;;
57441;SDS011;43284;47.042;15.498;2023-03-01T05:05:13;24.88;;;9.65;;
57441;SDS011;43284;47.042;15.498;2023-03-01T05:07:39;25.85;;;8.45;;
57441;SDS011;43284;47.042;15.498;2023-03-01T05:10:05;23.05;;;9.38;;
57441;SDS011;43284;47.042;15.498;2023-03-01T05:12:30;17.95;;;8.27;;
57441;SDS011;43284;47.042;15.498;2023-03-01T05:14:56;20.02;;;8.60;;
57441;SDS011;43284;47.042;15.498;2023-03-01T05:17:23;21.95;;;8.25;;
57441;SDS011;43284;47.042;15.498;2023-03-01T05:19:49;26.17;;;8.65;;
57441;SDS011;43284;47.042;15.498;2023-03-01T05:22:15;22.90;;;8.45;;
57441;SDS011;43284;47.042;15.498;2023-03-01T05:24:41;18.50;;;7.53;;
57441;SDS011;43284;47.042;15.498;2023-03-01T05:27:07;20.05;;;7.88;;
57441;SDS011;43284;47.042;15.498;2023-03-01T05:29:32;23.88;;;8.25;;
57441;SDS011;43284;47.042;15.498;2023-03-01T05:32:02;18.58;;;7.85;;
57441;SDS011;43284;47.042;15.498;2023-03-01T05:34:29;22.63;;;8.23;;
57441;SDS011;43284;47.042;15.498;2023-03-01T05:36:57;20.60;;;7.93;;
57441;SDS011;43284;47.042;15.498;2023-03-01T05:39:25;23.65;;;9.13;;
57441;SDS011;43284;47.042;15.498;2023-03-01T05:41:52;20.88;;;7.05;;
57441;SDS011;43284;47.042;15.498;2023-03-01T05:44:19;20.67;;;7.88;;
57441;SDS011;43284;47.042;15.498;2023-03-01T05:46:45;20.48;;;8.50;;
57441;SDS011;43284;47.042;15.498;2023-03-01T05:49:11;27.35;;;8.50;;
57441;SDS011;43284;47.042;15.498;2023-03-01T05:51:40;17.80;;;8.32;;
57441;SDS011;43284;47.042;15.498;2023-03-01T05:54:07;19.55;;;7.95;;
57441;SDS011;43284;47.042;15.498;2023-03-01T05:56:34;24.33;;;8.98;;
57441;SDS011;43284;47.042;15.498;2023-03-01T05:59:01;21.02;;;8.98;;
57441;SDS011;43284;47.042;15.498;2023-03-01T06:01:30;21.60;;;8.35;;
57441;SDS011;43284;47.042;15.498;2023-03-01T06:03:56;24.65;;;9.13;;
57441;SDS011;43284;47.042;15.498;2023-03-01T06:06:22;24.95;;;9.00;;
57441;SDS011;43284;47.042;15.498;2023-03-01T06:08:49;25.95;;;9.00;;
57441;SDS011;43284;47.042;15.498;2023-03-01T06:11:15;21.85;;;8.35;;
57441;SDS011;43284;47.042;15.498;2023-03-01T06:13:41;26.02;;;9.20;;
57441;SDS011;43284;47.042;15.498;2023-03-01T06:16:08;23.20;;;9.13;;
57441;SDS011;43284;47.042;15.498;2023-03-01T06:18:34;20.13;;;7.60;;
57441;SDS011;43284;47.042;15.498;2023-03-01T06:21:00;19.60;;;8.45;;
57441;SDS011;43284;47.042;15.498;2023-03-01T06:23:26;20.52;;;7.43;;
57441;SDS011;43284;47.042;15.498;2023-03-01T06:25:52;19.13;;;7.82;;
57441;SDS011;43284;47.042;15.498;2023-03-01T06:28:17;22.70;;;7.57;;
57441;SDS011;43284;47.042;15.498;2023-03-01T06:30:43;17.58;;;7.47;;
57441;SDS011;43284;47.042;15.498;2023-03-01T06:33:09;20.48;;;8.23;;
57441;SDS011;43284;47.042;15.498;2023-03-01T06:35:34;24.33;;;8.00;;
57441;SDS011;43284;47.042;15.498;2023-03-01T06:38:01;20.55;;;8.55;;
57441;SDS011;43284;47.042;15.498;2023-03-01T06:40:27;21.98;;;8.45;;
57441;SDS011;43284;47.042;15.498;2023-03-01T06:42:54;23.10;;;9.68;;
57441;SDS011;43284;47.042;15.498;2023-03-01T06:45:20;22.23;;;8.55;;
57441;SDS011;43284;47.042;15.498;2023-03-01T06:47:46;23.25;;;9.60;;
57441;SDS011;43284;47.042;15.498;2023-03-01T06:50:13;18.92;;;8.20;;
57441;SDS011;43284;47.042;15.498;2023-03-01T06:52:40;20.60;;;8.88;;
57441;SDS011;43284;47.042;15.498;2023-03-01T06:55:06;22.70;;;8.70;;
57441;SDS011;43284;47.042;15.498;2023-03-01T06:57:32;19.33;;;7.63;;
57441;SDS011;43284;47.042;15.498;2023-03-01T06:59:58;21.70;;;8.73;;
57441;SDS011;43284;47.042;15.498;2023-03-01T07:02:23;19.60;;;7.85;;
57441;SDS011;43284;47.042;15.498;2023-03-01T07:04:50;19.08;;;8.50;;
57441;SDS011;43284;47.042;15.498;2023-03-01T07:07:16;15.93;;;8.07;;
57441;SDS011;43284;47.042;15.498;2023-03-01T07:09:43;18.88;;;7.60;;
57441;SDS011;43284;47.042;15.498;2023-03-01T07:12:10;22.90;;;7.45;;
57441;SDS011;43284;47.042;15.498;2023-03-01T07:14:35;21.60;;;7.63;;
57441;SDS011;43284;47.042;15.498;2023-03-01T07:17:01;26.88;;;8.00;;
57441;SDS011;43284;47.042;15.498;2023-03-01T07:19:26;21.90;;;7.05;;
57441;SDS011;43284;47.042;15.498;2023-03-01T07:21:52;21.33;;;8.85;;
57441;SDS011;43284;47.042;15.498;2023-03-01T07:24:18;18.35;;;7.68;;
57441;SDS011;43284;47.042;15.498;2023-03-01T07:26:43;16.85;;;7.72;;
57441;SDS011;43284;47.042;15.498;2023-03-01T07:29:09;24.20;;;9.23;;
57441;SDS011;43284;47.042;15.498;2023-03-01T07:31:35;21.00;;;8.02;;
57441;SDS011;43284;47.042;15.498;2023-03-01T07:34:02;24.58;;;8.02;;
57441;SDS011;43284;47.042;15.498;2023-03-01T07:36:28;27.50;;;8.85;;
57441;SDS011;43284;47.042;15.498;2023-03-01T07:38:53;20.10;;;7.70;;
57441;SDS011;43284;47.042;15.498;2023-03-01T07:41:20;21.17;;;8.10;;
57441;SDS011;43284;47.042;15.498;2023-03-01T07:43:46;20.08;;;8.70;;
57441;SDS011;43284;47.042;15.498;2023-03-01T07:46:12;21.63;;;7.68;;
57441;SDS011;43284;47.042;15.498;2023-03-01T07:48:38;29.00;;;8.98;;
57441;SDS011;43284;47.042;15.498;2023-03-01T07:51:04;22.08;;;8.27;;
57441;SDS011;43284;47.042;15.498;2023-03-01T07:53:31;25.92;;;8.60;;
57441;SDS011;43284;47.042;15.498;2023-03-01T08:01:02;23.17;;;8.27;;
57441;SDS011;43284;47.042;15.498;2023-03-01T08:03:29;19.35;;;8.95;;
57441;SDS011;43284;47.042;15.498;2023-03-01T08:05:55;21.23;;;7.85;;
57441;SDS011;43284;47.042;15.498;2023-03-01T08:08:21;24.48;;;10.45;;
57441;SDS011;43284;47.042;15.498;2023-03-01T08:10:46;24.80;;;10.23;;
57441;SDS011;43284;47.042;15.498;2023-03-01T08:13:12;21.60;;;9.20;;
57441;SDS011;43284;47.042;15.498;2023-03-01T08:15:38;20.98;;;9.13;;
57441;SDS011;43284;47.042;15.498;2023-03-01T08:18:03;23.35;;;9.50;;
57441;SDS011;43284;47.042;15.498;2023-03-01T08:20:29;20.23;;;8.48;;
57441;SDS011;43284;47.042;15.498;2023-03-01T08:22:55;23.70;;;10.13;;
57441;SDS011;43284;47.042;15.498;2023-03-01T08:25:22;30.45;;;9.98;;
57441;SDS011;43284;47.042;15.498;2023-03-01T08:27:48;25.40;;;9.98;;
57441;SDS011;43284;47.042;15.498;2023-03-01T08:30:13;22.17;;;9.55;;
57441;SDS011;43284;47.042;15.498;2023-03-01T08:32:39;23.83;;;9.20;;
57441;SDS011;43284;47.042;15.498;2023-03-01T08:35:05;27.85;;;10.07;;
57441;SDS011;43284;47.042;15.498;2023-03-01T08:37:31;22.77;;;9.10;;
57441;SDS011;43284;47.042;15.498;2023-03-01T08:39:58;19.48;;;8.93;;
57441;SDS011;43284;47.042;15.498;2023-03-01T08:42:24;26.25;;;9.93;;
57441;SDS011;43284;47.042;15.498;2023-03-01T08:44:50;23.23;;;10.27;;
57441;SDS011;43284;47.042;15.498;2023-03-01T08:47:15;27.75;;;9.73;;
57441;SDS011;43284;47.042;15.498;2023-03-01T08:49:41;19.52;;;9.13;;
57441;SDS011;43284;47.042;15.498;2023-03-01T08:52:06;23.90;;;8.95;;
57441;SDS011;43284;47.042;15.498;2023-03-01T08:54:32;23.95;;;9.68;;
57441;SDS011;43284;47.042;15.498;2023-03-01T08:56:58;20.27;;;9.20;;
57441;SDS011;43284;47.042;15.498;2023-03-01T08:59:26;28.40;;;10.10;;
57441;SDS011;43284;47.042;15.498;2023-03-01T09:01:54;30.08;;;9.95;;
57441;SDS011;43284;47.042;15.498;2023-03-01T09:04:20;25.88;;;9.65;;
57441;SDS011;43284;47.042;15.498;2023-03-01T09:06:45;27.88;;;11.07;;
57441;SDS011;43284;47.042;15.498;2023-03-01T09:09:15;25.10;;;9.48;;
57441;SDS011;43284;47.042;15.498;2023-03-01T09:11:42;24.90;;;9.70;;
57441;SDS011;43284;47.042;15.498;2023-03-01T09:14:08;22.58;;;9.00;;
57441;SDS011;43284;47.042;15.498;2023-03-01T09:16:34;23.92;;;9.48;;
57441;SDS011;43284;47.042;15.498;2023-03-01T09:19:03;29.60;;;10.48;;
57441;SDS011;43284;47.042;15.498;2023-03-01T09:21:29;33.58;;;11.55;;
57441;SDS011;43284;47.042;15.498;2023-03-01T09:23:55;28.02;;;10.25;;
57441;SDS011;43284;47.042;15.498;2023-03-01T09:26:22;23.98;;;10.00;;
57441;SDS011;43284;47.042;15.498;2023-03-01T09:28:49;28.63;;;10.98;;
57441;SDS011;43284;47.042;15.498;2023-03-01T09:31:17;30.33;;;11.80;;
57441;SDS011;43284;47.042;15.498;2023-03-01T09:33:48;34.67;;;11.57;;
57441;SDS011;43284;47.042;15.498;2023-03-01T09:36:16;29.20;;;10.07;;
57441;SDS011;43284;47.042;15.498;2023-03-01T09:38:47;27.98;;;9.98;;
57441;SDS011;43284;47.042;15.498;2023-03-01T09:41:26;33.08;;;11.35;;
57441;SDS011;43284;47.042;15.498;2023-03-01T09:55:01;30.95;;;11.38;;
57441;SDS011;43284;47.042;15.498;2023-03-01T09:57:36;31.33;;;10.68;;
57441;SDS011;43284;47.042;15.498;2023-03-01T10:00:30;28.10;;;11.20;;
57441;SDS011;43284;47.042;15.498;2023-03-01T10:08:26;19.10;;;7.80;;
57441;SDS011;43284;47.042;15.498;2023-03-01T10:10:54;26.92;;;10.93;;
57441;SDS011;43284;47.042;15.498;2023-03-01T10:13:34;34.58;;;11.73;;
57441;SDS011;43284;47.042;15.498;2023-03-01T10:16:14;32.42;;;11.65;;
57441;SDS011;43284;47.042;15.498;2023-03-01T10:18:46;28.42;;;10.90;;
57441;SDS011;43284;47.042;15.498;2023-03-01T10:21:19;29.48;;;10.32;;
57441;SDS011;43284;47.042;15.498;2023-03-01T10:23:45;29.35;;;10.15;;
57441;SDS011;43284;47.042;15.498;2023-03-01T10:29:09;35.58;;;12.25;;
57441;SDS011;43284;47.042;15.498;2023-03-01T10:31:40;23.85;;;10.13;;
57441;SDS011;43284;47.042;15.498;2023-03-01T10:34:50;30.33;;;11.80;;
57441;SDS011;43284;47.042;15.498;2023-03-01T10:37:08;35.83;;;10.77;;
57441;SDS011;43284;47.042;15.498;2023-03-01T10:42:47;27.65;;;11.32;;
57441;SDS011;43284;47.042;15.498;2023-03-01T10:45:30;26.65;;;10.68;;
57441;SDS011;43284;47.042;15.498;2023-03-01T10:50:33;32.00;;;12.85;;
57441;SDS011;43284;47.042;15.498;2023-03-01T10:53:00;31.48;;;12.02;;
57441;SDS011;43284;47.042;15.498;2023-03-01T10:55:30;33.85;;;12.32;;
57441;SDS011;43284;47.042;15.498;2023-03-01T11:00:57;33.53;;;11.07;;
57441;SDS011;43284;47.042;15.498;2023-03-01T11:03:34;33.33;;;11.90;;
57441;SDS011;43284;47.042;15.498;2023-03-01T11:11:07;28.75;;;11.27;;
57441;SDS011;43284;47.042;15.498;2023-03-01T11:13:32;28.42;;;11.55;;
57441;SDS011;43284;47.042;15.498;2023-03-01T11:16:00;32.38;;;12.73;;
57441;SDS011;43284;47.042;15.498;2023-03-01T11:18:28;27.02;;;11.13;;
57441;SDS011;43284;47.042;15.498;2023-03-01T11:20:55;32.55;;;11.30;;
57441;SDS011;43284;47.042;15.498;2023-03-01T11:23:24;34.50;;;11.93;;
57441;SDS011;43284;47.042;15.498;2023-03-01T11:25:56;35.15;;;12.65;;
57441;SDS011;43284;47.042;15.498;2023-03-01T11:28:25;30.17;;;11.88;;
57441;SDS011;43284;47.042;15.498;2023-03-01T11:30:58;32.15;;;11.68;;
57441;SDS011;43284;47.042;15.498;2023-03-01T11:33:33;28.67;;;11.82;;
57441;SDS011;43284;47.042;15.498;2023-03-01T11:38:55;30.63;;;11.45;;
57441;SDS011;43284;47.042;15.498;2023-03-01T11:41:30;40.10;;;11.65;;
57441;SDS011;43284;47.042;15.498;2023-03-01T11:55:07;30.50;;;11.40;;
57441;SDS011;43284;47.042;15.498;2023-03-01T11:58:04;29.02;;;11.40;;
57441;SDS011;43284;47.042;15.498;2023-03-01T12:03:32;37.80;;;12.38;;
57441;SDS011;43284;47.042;15.498;2023-03-01T12:11:32;27.20;;;10.55;;
57441;SDS011;43284;47.042;15.498;2023-03-01T12:27:54;36.13;;;10.65;;
57441;SDS011;43284;47.042;15.498;2023-03-01T12:44:47;27.48;;;10.75;;
57441;SDS011;43284;47.042;15.498;2023-03-01T12:49:42;25.33;;;10.23;;
57441;SDS011;43284;47.042;15.498;2023-03-01T12:55:02;28.83;;;10.73;;
57441;SDS011;43284;47.042;15.498;2023-03-01T12:57:56;27.27;;;10.95;;
57441;SDS011;43284;47.042;15.498;2023-03-01T13:03:31;28.13;;;10.88;;
57441;SDS011;43284;47.042;15.498;2023-03-01T13:12:00;23.65;;;9.75;;
57441;SDS011;43284;47.042;15.498;2023-03-01T13:16:52;30.75;;;11.15;;
57441;SDS011;43284;47.042;15.498;2023-03-01T13:19:19;31.98;;;10.88;;
57441;SDS011;43284;47.042;15.498;2023-03-01T13:21:50;27.33;;;11.23;;
57441;SDS011;43284;47.042;15.498;2023-03-01T13:32:21;24.88;;;10.77;;
57441;SDS011;43284;47.042;15.498;2023-03-01T13:35:04;26.00;;;10.43;;
57441;SDS011;43284;47.042;15.498;2023-03-01T13:37:51;23.45;;;10.15;;
57441;SDS011;43284;47.042;15.498;2023-03-01T13:42:50;26.40;;;9.82;;
57441;SDS011;43284;47.042;15.498;2023-03-01T13:48:17;25.17;;;10.43;;
57441;SDS011;43284;47.042;15.498;2023-03-01T13:50:50;25.45;;;9.73;;
57441;SDS011;43284;47.042;15.498;2023-03-01T13:53:21;22.13;;;9.48;;
57441;SDS011;43284;47.042;15.498;2023-03-01T13:55:58;26.25;;;10.43;;
57441;SDS011;43284;47.042;15.498;2023-03-01T13:58:29;28.60;;;10.43;;
57441;SDS011;43284;47.042;15.498;2023-03-01T14:01:03;25.83;;;10.23;;
57441;SDS011;43284;47.042;15.498;2023-03-01T14:03:32;26.42;;;9.55;;
57441;SDS011;43284;47.042;15.498;2023-03-01T14:06:09;26.15;;;9.57;;
57441;SDS011;43284;47.042;15.498;2023-03-01T14:08:38;23.83;;;9.65;;
57441;SDS011;43284;47.042;15.498;2023-03-01T14:16:17;28.45;;;10.00;;
57441;SDS011;43284;47.042;15.498;2023-03-01T14:22:23;25.92;;;9.43;;
57441;SDS011;43284;47.042;15.498;2023-03-01T14:25:04;29.70;;;10.18;;
57441;SDS011;43284;47.042;15.498;2023-03-01T14:27:41;26.95;;;9.90;;
57441;SDS011;43284;47.042;15.498;2023-03-01T14:30:15;27.35;;;10.82;;
57441;SDS011;43284;47.042;15.498;2023-03-01T14:32:56;33.13;;;11.13;;
57441;SDS011;43284;47.042;15.498;2023-03-01T14:35:27;31.95;;;10.18;;
57441;SDS011;43284;47.042;15.498;2023-03-01T14:37:56;24.65;;;10.35;;
57441;SDS011;43284;47.042;15.498;2023-03-01T14:40:32;29.98;;;10.32;;
57441;SDS011;43284;47.042;15.498;2023-03-01T14:43:01;26.15;;;9.88;;
57441;SDS011;43284;47.042;15.498;2023-03-01T14:45:33;26.50;;;10.05;;
57441;SDS011;43284;47.042;15.498;2023-03-01T14:48:00;22.30;;;8.98;;
57441;SDS011;43284;47.042;15.498;2023-03-01T14:50:29;21.15;;;9.00;;
57441;SDS011;43284;47.042;15.498;2023-03-01T14:53:04;23.15;;;9.02;;
57441;SDS011;43284;47.042;15.498;2023-03-01T14:55:33;19.83;;;9.10;;
57441;SDS011;43284;47.042;15.498;2023-03-01T14:58:05;23.27;;;10.15;;
57441;SDS011;43284;47.042;15.498;2023-03-01T15:00:34;23.27;;;9.47;;
57441;SDS011;43284;47.042;15.498;2023-03-01T15:03:08;25.00;;;9.80;;
57441;SDS011;43284;47.042;15.498;2023-03-01T15:05:38;28.80;;;10.18;;
57441;SDS011;43284;47.042;15.498;2023-03-01T15:08:06;24.08;;;10.05;;
57441;SDS011;43284;47.042;15.498;2023-03-01T15:10:34;28.05;;;10.20;;
57441;SDS011;43284;47.042;15.498;2023-03-01T15:13:19;21.45;;;9.35;;
57441;SDS011;43284;47.042;15.498;2023-03-01T15:15:47;26.92;;;11.05;;
57441;SDS011;43284;47.042;15.498;2023-03-01T15:18:19;27.92;;;10.13;;
57441;SDS011;43284;47.042;15.498;2023-03-01T15:20:47;20.17;;;9.77;;
57441;SDS011;43284;47.042;15.498;2023-03-01T15:23:19;26.90;;;10.05;;
57441;SDS011;43284;47.042;15.498;2023-03-01T15:25:48;23.20;;;9.70;;
57441;SDS011;43284;47.042;15.498;2023-03-01T15:28:22;27.35;;;9.88;;
57441;SDS011;43284;47.042;15.498;2023-03-01T15:30:55;32.85;;;10.35;;
57441;SDS011;43284;47.042;15.498;2023-03-01T15:33:31;24.45;;;9.38;;
57441;SDS011;43284;47.042;15.498;2023-03-01T15:36:03;29.60;;;10.65;;
57441;SDS011;43284;47.042;15.498;2023-03-01T15:39:03;27.75;;;10.65;;
57441;SDS011;43284;47.042;15.498;2023-03-01T15:41:46;20.33;;;9.35;;
57441;SDS011;43284;47.042;15.498;2023-03-01T15:44:15;23.17;;;9.63;;
57441;SDS011;43284;47.042;15.498;2023-03-01T15:46:45;27.35;;;10.63;;
57441;SDS011;43284;47.042;15.498;2023-03-01T15:49:31;29.00;;;11.07;;
57441;SDS011;43284;47.042;15.498;2023-03-01T15:51:58;26.13;;;10.65;;
57441;SDS011;43284;47.042;15.498;2023-03-01T15:54:24;26.48;;;10.50;;
57441;SDS011;43284;47.042;15.498;2023-03-01T15:56:52;22.13;;;9.93;;
57441;SDS011;43284;47.042;15.498;2023-03-01T15:59:18;29.58;;;10.73;;
57441;SDS011;43284;47.042;15.498;2023-03-01T16:01:43;26.75;;;11.05;;
57441;SDS011;43284;47.042;15.498;2023-03-01T16:04:12;26.30;;;10.38;;
57441;SDS011;43284;47.042;15.498;2023-03-01T16:06:46;26.63;;;10.13;;
57441;SDS011;43284;47.042;15.498;2023-03-01T16:09:22;26.05;;;10.32;;
57441;SDS011;43284;47.042;15.498;2023-03-01T16:11:51;31.98;;;11.20;;
57441;SDS011;43284;47.042;15.498;2023-03-01T16:14:18;28.75;;;11.02;;
57441;SDS011;43284;47.042;15.498;2023-03-01T16:16:44;34.25;;;11.80;;
57441;SDS011;43284;47.042;15.498;2023-03-01T16:19:11;36.72;;;13.75;;
57441;SDS011;43284;47.042;15.498;2023-03-01T16:21:37;37.70;;;13.90;;
57441;SDS011;43284;47.042;15.498;2023-03-01T16:24:03;37.97;;;12.95;;
57441;SDS011;43284;47.042;15.498;2023-03-01T16:26:29;34.83;;;12.13;;
57441;SDS011;43284;47.042;15.498;2023-03-01T16:28:55;30.25;;;12.27;;
57441;SDS011;43284;47.042;15.498;2023-03-01T16:31:22;34.20;;;11.88;;
57441;SDS011;43284;47.042;15.498;2023-03-01T16:33:53;33.35;;;12.38;;
57441;SDS011;43284;47.042;15.498;2023-03-01T16:36:20;30.90;;;12.02;;
57441;SDS011;43284;47.042;15.498;2023-03-01T16:38:51;29.67;;;11.70;;
57441;SDS011;43284;47.042;15.498;2023-03-01T16:41:18;29.02;;;12.18;;
57441;SDS011;43284;47.042;15.498;2023-03-01T16:43:47;31.92;;;13.40;;
57441;SDS011;43284;47.042;15.498;2023-03-01T16:46:18;31.83;;;12.65;;